Time;durP1;ratioP1;P1;durP2;ratioP2;P2;SDS_P1;SDS_P2;PMS_P1;PMS_P2;Temp;Humidity;BMP_temperature;BMP_pressure;BME280_temperature;BME280_humidity;BME280_pressure;Samples;Min_cycle;Max_cycle;Signal;HPM_P1;HPM_P2
2022/02/07 10:12:29;;;;;;;10.47;9.67;;;6.90;99.90;;;;;;5086987;27;20308;-71
2022/02/07 10:15:05;;;;;;;9.90;9.30;;;7.40;99.90;;;;;;5086976;28;20457;-71
2022/02/07 10:17:42;;;;;;;10.87;9.67;;;7.60;99.90;;;;;;5086731;28;20448;-71
2022/02/07 10:20:54;;;;;;;10.50;9.80;;;7.70;99.90;;;;;;5087233;28;20914;-72
2022/02/07 10:34:51;;;;;;;9.93;9.43;;;7.60;99.90;;;;;;5086600;28;20516;-72
2022/02/07 10:37:53;;;;;;;10.13;9.30;;;7.50;99.90;;;;;;5086448;28;20744;-73
2022/02/07 10:40:29;;;;;;;9.83;9.10;;;7.20;99.90;;;;;;5086293;28;20579;-72
2022/02/07 10:43:20;;;;;;;9.67;8.97;;;7.20;99.90;;;;;;5086664;28;20536;-73
2022/02/07 10:46:00;;;;;;;10.10;9.10;;;7.40;99.90;;;;;;5086324;28;20453;-72
2022/02/07 10:48:36;;;;;;;9.77;9.20;;;7.50;99.90;;;;;;5086377;28;20508;-72
2022/02/07 10:51:15;;;;;;;10.70;9.63;;;7.40;99.90;;;;;;5086212;28;21016;-71
2022/02/07 10:53:45;;;;;;;9.57;9.03;;;7.10;99.90;;;;;;5086415;28;20448;-72
2022/02/07 10:56:13;;;;;;;10.03;9.30;;;7.00;99.90;;;;;;5086243;28;20473;-72
2022/02/07 10:58:40;;;;;;;10.53;9.67;;;7.10;99.90;;;;;;5086412;28;20460;-72
2022/02/07 11:01:17;;;;;;;9.00;8.40;;;7.10;99.90;;;;;;5086207;28;21209;-71
2022/02/07 11:03:49;;;;;;;10.30;9.50;;;7.40;99.90;;;;;;5065580;28;20523;-71
2022/02/07 11:06:21;;;;;;;10.20;9.40;;;7.70;99.90;;;;;;5065531;28;21004;-72
2022/02/07 11:09:07;;;;;;;10.23;9.40;;;8.30;99.90;;;;;;5065629;28;21075;-71
2022/02/07 11:12:09;;;;;;;10.30;9.40;;;8.60;99.90;;;;;;5060366;28;20483;-72
2022/02/07 11:15:04;;;;;;;9.93;9.20;;;8.10;99.90;;;;;;5052522;28;20447;-72
2022/02/07 11:17:51;;;;;;;9.73;8.80;;;7.90;99.90;;;;;;5052046;28;20554;-72
2022/02/07 11:20:31;;;;;;;11.00;8.87;;;7.70;99.90;;;;;;5052110;28;20486;-73
2022/02/07 11:23:11;;;;;;;10.30;9.40;;;7.60;99.90;;;;;;5052326;28;20554;-72
2022/02/07 11:25:45;;;;;;;9.70;9.10;;;7.60;99.90;;;;;;5052510;28;20467;-73
2022/02/07 11:28:20;;;;;;;10.90;9.80;;;7.70;99.90;;;;;;5052256;28;20461;-72
2022/02/07 11:30:50;;;;;;;10.20;9.70;;;7.40;99.90;;;;;;5051993;28;20451;-72
2022/02/07 11:33:48;;;;;;;9.60;9.10;;;7.20;99.90;;;;;;5051819;28;20785;-72
2022/02/07 11:36:23;;;;;;;10.00;9.00;;;7.20;99.90;;;;;;5051460;28;20825;-72
2022/02/07 11:38:57;;;;;;;16.23;8.53;;;7.30;99.90;;;;;;5051898;28;20949;-72
2022/02/07 11:41:24;;;;;;;10.63;8.90;;;7.20;99.90;;;;;;5052160;28;20499;-72
2022/02/07 11:43:50;;;;;;;10.80;9.93;;;7.20;99.90;;;;;;5051863;28;20459;-73
2022/02/07 11:46:17;;;;;;;8.70;8.00;;;7.10;99.90;;;;;;5051889;28;20449;-72
2022/02/07 11:48:47;;;;;;;9.53;8.83;;;7.00;99.90;;;;;;5051553;28;20456;-72
2022/02/07 11:51:15;;;;;;;9.57;8.80;;;7.00;99.90;;;;;;5051685;28;20824;-72
2022/02/07 11:53:46;;;;;;;9.20;8.80;;;7.10;99.90;;;;;;5051708;28;20459;-72
2022/02/07 11:56:20;;;;;;;9.70;9.20;;;7.10;99.90;;;;;;5051761;28;20461;-72
2022/02/07 11:59:16;;;;;;;9.67;8.90;;;6.90;99.90;;;;;;5051699;28;20810;-72
2022/02/07 12:01:58;;;;;;;9.27;8.47;;;6.80;99.90;;;;;;5051745;28;20497;-72
2022/02/07 12:04:33;;;;;;;9.57;8.87;;;6.90;99.90;;;;;;5051739;28;20817;-72
2022/02/07 12:07:30;;;;;;;10.00;9.40;;;6.90;99.90;;;;;;5051363;28;20528;-73
2022/02/07 12:10:14;;;;;;;9.57;8.97;;;7.00;99.90;;;;;;5051507;28;20488;-72
2022/02/07 12:12:47;;;;;;;10.50;9.70;;;6.90;99.90;;;;;;5051582;28;20465;-72
2022/02/07 12:15:20;;;;;;;9.50;9.00;;;6.90;99.90;;;;;;5051690;28;20451;-72
2022/02/07 12:17:49;;;;;;;9.40;8.90;;;6.90;99.90;;;;;;5051190;28;20467;-72
2022/02/07 12:20:20;;;;;;;10.90;8.50;;;6.90;99.90;;;;;;5051017;28;20842;-72
2022/02/07 12:22:53;;;;;;;10.67;9.97;;;6.90;99.90;;;;;;5050823;28;20456;-72
2022/02/07 12:25:44;;;;;;;10.40;9.80;;;7.00;99.90;;;;;;5050587;28;20456;-72
2022/02/07 12:28:16;;;;;;;9.70;9.20;;;7.00;99.90;;;;;;5051238;28;20457;-72
2022/02/07 12:30:58;;;;;;;9.73;9.03;;;7.10;99.90;;;;;;5050940;28;20451;-72
2022/02/07 12:33:25;;;;;;;9.80;9.10;;;7.20;99.90;;;;;;5051299;28;20455;-73
2022/02/07 12:35:54;;;;;;;10.30;9.70;;;7.30;99.90;;;;;;5050987;28;20448;-72
2022/02/07 12:38:22;;;;;;;10.33;9.50;;;7.40;99.90;;;;;;5050664;28;20508;-72
2022/02/07 12:40:49;;;;;;;9.83;9.13;;;7.40;99.90;;;;;;5050747;28;20486;-72
2022/02/07 12:43:15;;;;;;;10.63;9.70;;;7.60;99.90;;;;;;5050725;28;20459;-72
2022/02/07 12:45:43;;;;;;;10.10;9.40;;;7.50;99.90;;;;;;5050760;28;20791;-72
2022/02/07 12:48:15;;;;;;;10.50;10.10;;;7.50;99.90;;;;;;5050885;28;20450;-72
2022/02/07 12:50:42;;;;;;;9.60;8.97;;;7.50;99.90;;;;;;5050765;28;20859;-72
2022/02/07 12:53:11;;;;;;;10.73;9.83;;;7.60;99.90;;;;;;5050920;28;20808;-73
2022/02/07 12:55:37;;;;;;;10.17;9.57;;;7.50;99.90;;;;;;5050707;28;20446;-72
2022/02/07 12:58:04;;;;;;;10.73;10.03;;;7.60;99.90;;;;;;5050364;28;20951;-72
2022/02/07 13:00:31;;;;;;;10.77;9.60;;;7.60;99.90;;;;;;5050364;28;20505;-72
2022/02/07 13:02:58;;;;;;;16.93;10.40;;;7.70;99.90;;;;;;5050282;28;20831;-73
2022/02/07 13:05:24;;;;;;;10.87;10.30;;;7.70;99.90;;;;;;5050601;28;20866;-72
2022/02/07 13:07:52;;;;;;;10.27;9.77;;;7.70;99.90;;;;;;5050341;28;20449;-72
2022/02/07 13:10:23;;;;;;;10.17;9.60;;;7.60;99.90;;;;;;5049934;28;20477;-72
2022/02/07 13:13:07;;;;;;;10.47;9.33;;;7.60;99.90;;;;;;5050051;28;20498;-73
2022/02/07 13:15:36;;;;;;;9.73;9.10;;;7.60;99.90;;;;;;5050105;28;20466;-71
2022/02/07 13:18:07;;;;;;;10.43;9.50;;;7.60;99.90;;;;;;5049755;28;20471;-72
2022/02/07 13:20:36;;;;;;;13.43;9.17;;;7.40;99.90;;;;;;5049862;28;21006;-72
2022/02/07 13:23:05;;;;;;;9.73;9.17;;;7.40;99.90;;;;;;5050061;28;20445;-72
2022/02/07 13:25:41;;;;;;;10.47;9.90;;;7.20;99.90;;;;;;5049756;28;20451;-72
2022/02/07 13:28:12;;;;;;;9.47;8.97;;;7.20;99.90;;;;;;5050452;28;20455;-72
2022/02/07 13:30:41;;;;;;;9.30;8.57;;;7.20;99.90;;;;;;5050258;28;20450;-72
2022/02/07 13:33:08;;;;;;;10.90;9.90;;;7.20;99.90;;;;;;5049655;28;20490;-71
2022/02/07 13:35:42;;;;;;;9.53;8.73;;;7.30;99.90;;;;;;5049361;28;20940;-72
2022/02/07 13:38:09;;;;;;;9.87;9.30;;;7.30;99.90;;;;;;5050069;28;20458;-72
2022/02/07 13:40:42;;;;;;;11.57;10.50;;;7.40;99.90;;;;;;5049625;28;20537;-72
2022/02/07 13:43:11;;;;;;;8.93;8.43;;;7.30;99.90;;;;;;5049811;28;20453;-71
2022/02/07 13:45:38;;;;;;;9.77;9.27;;;7.20;99.90;;;;;;5049805;28;20474;-72
2022/02/07 13:48:06;;;;;;;9.53;8.83;;;7.10;99.90;;;;;;5049711;28;20813;-71
2022/02/07 13:50:36;;;;;;;10.00;9.30;;;7.20;99.90;;;;;;5049478;28;20515;-72
2022/02/07 13:53:05;;;;;;;10.00;9.17;;;7.30;99.90;;;;;;5049392;28;20513;-71
2022/02/07 13:55:36;;;;;;;9.60;9.10;;;7.40;99.90;;;;;;5049499;28;20458;-72
2022/02/07 13:58:07;;;;;;;9.47;8.67;;;7.30;99.90;;;;;;5049489;28;20436;-71
2022/02/07 14:00:36;;;;;;;8.90;8.40;;;7.30;99.90;;;;;;5049342;28;20457;-72
2022/02/07 14:03:05;;;;;;;9.77;9.00;;;7.30;99.90;;;;;;5049059;28;20823;-73
2022/02/07 14:05:33;;;;;;;9.90;9.40;;;7.20;99.90;;;;;;5049174;28;20446;-72
2022/02/07 14:08:02;;;;;;;9.27;8.67;;;7.30;99.90;;;;;;5049377;28;20956;-71
2022/02/07 14:10:34;;;;;;;8.87;8.40;;;7.30;99.90;;;;;;5049041;28;20499;-71
2022/02/07 14:13:00;;;;;;;9.47;8.90;;;7.50;99.90;;;;;;5049283;28;20464;-71
2022/02/07 14:15:28;;;;;;;9.80;9.33;;;7.40;99.90;;;;;;5049489;28;20452;-71
2022/02/07 14:17:55;;;;;;;10.70;9.90;;;7.40;99.90;;;;;;5049460;28;20947;-72
2022/02/07 14:20:30;;;;;;;10.43;9.30;;;7.40;99.90;;;;;;5049466;28;20531;-72
2022/02/07 14:22:56;;;;;;;9.87;8.87;;;7.50;99.90;;;;;;5049748;28;20527;-71
2022/02/07 14:25:28;;;;;;;10.50;9.90;;;7.50;99.90;;;;;;5049560;28;20447;-72
2022/02/07 14:27:55;;;;;;;9.30;8.70;;;7.40;99.90;;;;;;5049510;28;20447;-72
2022/02/07 14:30:22;;;;;;;9.93;9.10;;;7.30;99.90;;;;;;5049480;28;20491;-70
2022/02/07 14:32:50;;;;;;;8.37;7.97;;;7.10;99.90;;;;;;5049068;28;20496;-72
2022/02/07 14:35:16;;;;;;;8.73;8.23;;;7.20;99.90;;;;;;5049373;28;20462;-72
2022/02/07 14:37:43;;;;;;;11.17;10.13;;;7.30;99.90;;;;;;5049160;28;20445;-71
2022/02/07 14:40:11;;;;;;;9.37;8.70;;;7.40;99.90;;;;;;5049538;28;20504;-71
2022/02/07 14:42:38;;;;;;;8.90;8.50;;;7.40;99.90;;;;;;5049202;28;20488;-72
2022/02/07 14:45:13;;;;;;;9.67;9.10;;;7.40;99.90;;;;;;5049061;28;20843;-71
2022/02/07 14:47:51;;;;;;;10.13;9.47;;;7.40;99.90;;;;;;5051756;28;20458;-72
2022/02/07 14:50:21;;;;;;;9.90;9.10;;;7.40;99.90;;;;;;5052730;28;20950;-72
2022/02/07 14:52:48;;;;;;;10.90;9.10;;;7.40;99.90;;;;;;5052726;28;20445;-71
2022/02/07 14:55:15;;;;;;;9.67;8.77;;;7.40;99.90;;;;;;5052871;28;20458;-72
2022/02/07 14:57:42;;;;;;;9.13;8.53;;;7.40;99.90;;;;;;5052947;28;20459;-72
2022/02/07 15:00:12;;;;;;;8.90;8.33;;;7.40;99.90;;;;;;5052956;28;20459;-72
2022/02/07 15:02:38;;;;;;;9.93;9.03;;;7.30;99.90;;;;;;5052969;28;20859;-72
2022/02/07 15:05:06;;;;;;;9.70;8.80;;;7.30;99.90;;;;;;5052738;28;20447;-72
2022/02/07 15:07:34;;;;;;;8.73;8.00;;;7.40;99.90;;;;;;5052455;28;20492;-73
2022/02/07 15:10:00;;;;;;;9.40;8.60;;;7.30;99.90;;;;;;5052359;28;20727;-73
2022/02/07 15:12:28;;;;;;;8.77;8.13;;;7.20;99.90;;;;;;5052647;28;20464;-72
2022/02/07 15:14:54;;;;;;;10.07;9.17;;;7.10;99.90;;;;;;5052652;28;20493;-72
2022/02/07 15:17:24;;;;;;;10.40;9.50;;;7.00;99.90;;;;;;5052376;28;20498;-73
2022/02/07 15:19:51;;;;;;;8.93;8.33;;;6.80;99.90;;;;;;5052369;28;20452;-73
2022/02/07 15:22:18;;;;;;;8.60;8.20;;;6.70;99.90;;;;;;5051997;28;20567;-73
2022/02/07 15:24:46;;;;;;;12.40;11.30;;;6.60;99.90;;;;;;5052365;28;20452;-73
2022/02/07 15:27:12;;;;;;;14.73;9.57;;;6.50;99.90;;;;;;5052316;28;20511;-72
2022/02/07 15:29:39;;;;;;;9.27;8.50;;;6.40;99.90;;;;;;5052550;28;20456;-73
2022/02/07 15:32:21;;;;;;;9.80;8.97;;;6.30;99.90;;;;;;5051983;28;20444;-74
2022/02/07 15:34:49;;;;;;;9.00;8.20;;;6.20;99.90;;;;;;5052046;28;20473;-73
2022/02/07 15:37:16;;;;;;;10.43;9.30;;;6.20;99.90;;;;;;5052072;28;20512;-72
2022/02/07 15:39:42;;;;;;;10.13;9.43;;;6.10;99.90;;;;;;5052188;28;20462;-71
2022/02/07 15:42:10;;;;;;;9.80;9.20;;;6.10;99.90;;;;;;5052062;28;20487;-72
2022/02/07 15:44:37;;;;;;;10.60;9.80;;;6.10;99.90;;;;;;5051880;28;20452;-72
2022/02/07 15:47:05;;;;;;;10.27;9.67;;;6.00;99.90;;;;;;5051681;28;20447;-72
2022/02/07 15:49:32;;;;;;;10.07;9.07;;;6.00;99.90;;;;;;5051805;28;20459;-74
2022/02/07 15:52:00;;;;;;;10.40;9.67;;;5.90;99.90;;;;;;5051650;28;20812;-72
2022/02/07 15:54:29;;;;;;;14.90;9.27;;;5.90;99.90;;;;;;5051845;28;20453;-72
2022/02/07 15:56:55;;;;;;;13.13;10.70;;;5.90;99.90;;;;;;5051849;28;20463;-72
2022/02/07 15:59:24;;;;;;;9.90;9.07;;;5.90;99.90;;;;;;5051664;28;20446;-73
2022/02/07 16:01:51;;;;;;;9.33;8.73;;;5.90;99.90;;;;;;5051259;28;20851;-73
2022/02/07 16:04:17;;;;;;;11.53;9.63;;;5.80;99.90;;;;;;5051374;28;20453;-72
2022/02/07 16:06:44;;;;;;;10.50;9.60;;;5.80;99.90;;;;;;5051408;28;20459;-72
2022/02/07 16:09:11;;;;;;;9.80;9.10;;;5.80;99.90;;;;;;5051590;28;20456;-72
2022/02/07 16:11:38;;;;;;;10.40;9.70;;;5.70;99.90;;;;;;5051556;28;20468;-73
2022/02/07 16:14:07;;;;;;;8.60;8.10;;;5.60;99.90;;;;;;5051146;28;20452;-73
2022/02/07 16:16:35;;;;;;;9.90;9.20;;;5.50;99.90;;;;;;5051006;28;20456;-72
2022/02/07 16:19:03;;;;;;;10.43;9.53;;;5.50;99.90;;;;;;5051269;28;20451;-72
2022/02/07 16:21:30;;;;;;;10.33;9.00;;;5.40;99.90;;;;;;5051040;28;20557;-72
2022/02/07 16:23:57;;;;;;;10.07;9.37;;;5.40;99.90;;;;;;5051244;28;20455;-72
2022/02/07 16:26:24;;;;;;;11.07;10.23;;;5.30;99.90;;;;;;5051306;28;20449;-74
2022/02/07 16:28:51;;;;;;;10.33;9.60;;;5.30;99.90;;;;;;5051118;28;20449;-73
2022/02/07 16:31:17;;;;;;;9.83;8.47;;;5.20;99.90;;;;;;5050999;28;20449;-74
2022/02/07 16:33:45;;;;;;;8.07;7.33;;;5.20;99.90;;;;;;5050846;28;20448;-74
2022/02/07 16:36:12;;;;;;;10.43;9.53;;;5.10;99.90;;;;;;5051018;28;20459;-74
2022/02/07 16:38:39;;;;;;;10.13;9.20;;;5.20;99.90;;;;;;5051081;28;20448;-74
2022/02/07 16:41:10;;;;;;;10.87;9.87;;;5.00;99.90;;;;;;5050745;28;20448;-71
2022/02/07 16:43:39;;;;;;;9.73;9.13;;;4.90;99.90;;;;;;5050936;28;20526;-71
2022/02/07 16:46:29;;;;;;;10.20;9.50;;;4.90;99.90;;;;;;5050807;28;20546;-74
2022/02/07 16:48:57;;;;;;;9.87;8.70;;;4.90;99.90;;;;;;5050903;28;20574;-74
2022/02/07 16:51:25;;;;;;;8.63;7.93;;;4.80;99.90;;;;;;5050926;28;20448;-73
2022/02/07 16:53:52;;;;;;;9.30;8.60;;;4.80;99.90;;;;;;5050585;28;20447;-72
2022/02/07 16:56:18;;;;;;;9.73;8.80;;;4.80;99.90;;;;;;5050328;28;20455;-72
2022/02/07 16:58:45;;;;;;;9.53;8.87;;;4.70;99.90;;;;;;5050699;28;20832;-72
2022/02/07 17:01:12;;;;;;;9.50;8.90;;;4.70;99.90;;;;;;5050544;28;20444;-72
2022/02/07 17:03:40;;;;;;;11.00;9.47;;;4.60;99.90;;;;;;5050442;28;20499;-72
2022/02/07 17:06:09;;;;;;;9.50;8.80;;;4.60;99.90;;;;;;5050511;28;20483;-71
2022/02/07 17:08:35;;;;;;;10.17;9.27;;;4.50;99.90;;;;;;5050261;28;20448;-73
2022/02/07 17:11:05;;;;;;;9.60;8.80;;;4.40;99.90;;;;;;5049561;28;20857;-73
2022/02/07 17:13:32;;;;;;;13.33;8.60;;;4.40;99.90;;;;;;5050314;28;21204;-73
2022/02/07 17:15:58;;;;;;;9.73;8.80;;;4.40;99.90;;;;;;5050122;28;20924;-73
2022/02/07 17:18:26;;;;;;;9.90;9.30;;;4.30;99.90;;;;;;5050378;28;20459;-72
2022/02/07 17:20:53;;;;;;;9.47;8.57;;;4.20;99.90;;;;;;5050375;28;20457;-72
2022/02/07 17:23:22;;;;;;;10.87;9.07;;;4.20;99.90;;;;;;5049952;28;20499;-72
2022/02/07 17:25:49;;;;;;;10.10;9.50;;;4.20;99.90;;;;;;5050019;28;20454;-73
2022/02/07 17:28:16;;;;;;;9.43;8.83;;;4.20;99.90;;;;;;5049837;28;20456;-72
2022/02/07 17:30:42;;;;;;;11.50;8.97;;;4.20;99.90;;;;;;5050001;28;20448;-72
2022/02/07 17:33:10;;;;;;;8.60;7.80;;;4.30;99.90;;;;;;5050095;28;20862;-71
2022/02/07 17:35:37;;;;;;;9.13;8.40;;;4.40;99.90;;;;;;5049965;28;20471;-72
2022/02/07 17:38:04;;;;;;;10.20;9.07;;;4.40;99.90;;;;;;5049883;28;20787;-72
2022/02/07 17:40:32;;;;;;;8.90;8.20;;;4.40;99.90;;;;;;5049733;28;20455;-72
2022/02/07 17:43:00;;;;;;;9.50;8.90;;;4.50;99.90;;;;;;5049678;28;20522;-73
2022/02/07 17:45:29;;;;;;;9.97;9.37;;;4.50;99.90;;;;;;5049981;28;20858;-73
2022/02/07 17:47:56;;;;;;;10.53;9.37;;;4.50;99.90;;;;;;5049715;28;20673;-72
2022/02/07 17:50:23;;;;;;;10.53;9.43;;;4.60;99.90;;;;;;5049865;28;20962;-73
2022/02/07 17:52:50;;;;;;;9.13;8.13;;;4.70;99.90;;;;;;5049565;28;20458;-73
2022/02/07 17:55:18;;;;;;;8.43;7.70;;;4.70;99.90;;;;;;5049575;28;20448;-72
2022/02/07 17:57:46;;;;;;;11.27;9.40;;;4.90;99.90;;;;;;5049613;28;20941;-72
